createdAt,value
2022-07-31T00:00:41.499Z,100302.61
2022-07-31T00:03:12.319Z,100296.65
2022-07-31T00:05:43.835Z,100287.07
2022-07-31T00:08:14.680Z,100284.67
2022-07-31T00:10:45.369Z,100282.75
2022-07-31T00:13:16.871Z,100281.05
2022-07-31T00:15:47.602Z,100283.58
2022-07-31T00:18:18.375Z,100285.63
2022-07-31T00:20:49.813Z,100290.35
2022-07-31T00:23:20.498Z,100289.39
2022-07-31T00:25:51.331Z,100290.67
2022-07-31T00:28:22.145Z,100292.88
2022-07-31T00:30:53.171Z,100296.30
2022-07-31T00:33:23.914Z,100299.86
2022-07-31T00:35:54.684Z,100309.15
2022-07-31T00:38:26.911Z,100319.39
2022-07-31T00:40:58.493Z,100325.48
2022-07-31T00:43:30.887Z,100328.65
2022-07-31T00:46:01.948Z,100331.70
2022-07-31T00:48:32.667Z,100325.21
2022-07-31T00:51:04.486Z,100320.21
2022-07-31T00:53:35.121Z,100314.67
2022-07-31T00:56:06.149Z,100305.61
2022-07-31T00:58:36.846Z,100297.16
2022-07-31T01:01:07.570Z,100290.81
2022-07-31T01:03:38.319Z,100291.19
2022-07-31T01:06:09.691Z,100293.40
2022-07-31T01:08:40.444Z,100292.83
2022-07-31T01:11:12.811Z,100292.81
2022-07-31T01:13:45.568Z,100295.13
2022-07-31T01:16:16.447Z,100300.20
2022-07-31T01:18:47.061Z,100301.27
2022-07-31T01:21:19.669Z,100302.65
2022-07-31T01:24:12.935Z,100308.38
2022-07-31T01:26:47.660Z,100312.00
2022-07-31T01:29:20.508Z,100313.92
2022-07-31T01:31:51.401Z,100318.53
2022-07-31T01:34:24.548Z,100318.43
2022-07-31T01:36:57.351Z,100314.85
2022-07-31T01:39:28.061Z,100316.08
2022-07-31T01:42:06.945Z,100314.35
2022-07-31T01:44:40.004Z,100308.33
2022-07-31T01:47:10.741Z,100308.45
2022-07-31T01:49:41.383Z,100308.45
2022-07-31T01:52:12.197Z,100303.23
2022-07-31T01:54:43.019Z,100307.14
2022-07-31T01:57:17.380Z,100305.33
2022-07-31T01:59:49.626Z,100293.04
2022-07-31T02:02:25.416Z,100299.03
2022-07-31T02:04:56.936Z,100303.89
2022-07-31T02:07:27.586Z,100301.67
2022-07-31T02:09:59.266Z,100294.91
2022-07-31T02:12:33.941Z,100299.60
2022-07-31T02:15:05.546Z,100301.82
2022-07-31T02:17:36.786Z,100302.22
2022-07-31T02:20:08.272Z,100298.05
2022-07-31T02:22:38.884Z,100298.77
2022-07-31T02:25:10.119Z,100297.07
2022-07-31T02:27:54.285Z,100289.19
2022-07-31T02:30:39.273Z,100290.15
2022-07-31T02:33:11.757Z,100288.27
2022-07-31T02:35:43.888Z,100288.06
2022-07-31T02:38:18.091Z,100288.47
2022-07-31T02:40:55.167Z,100295.13
2022-07-31T02:43:25.813Z,100291.48
2022-07-31T02:45:56.409Z,100287.36
2022-07-31T02:48:27.308Z,100290.71
2022-07-31T02:50:58.055Z,100288.77
2022-07-31T02:53:28.721Z,100289.42
2022-07-31T02:55:59.356Z,100290.37
2022-07-31T02:58:30.186Z,100293.45
2022-07-31T03:01:01.679Z,100298.28
2022-07-31T03:03:32.461Z,100301.39
2022-07-31T03:06:03.123Z,100300.30
2022-07-31T03:08:33.820Z,100302.98
2022-07-31T03:11:04.627Z,100307.39
2022-07-31T03:13:35.519Z,100310.88
2022-07-31T03:16:06.447Z,100313.13
2022-07-31T03:18:37.255Z,100322.50
2022-07-31T03:21:07.832Z,100322.55
2022-07-31T03:23:38.526Z,100324.59
2022-07-31T03:26:09.351Z,100327.63
2022-07-31T03:28:40.017Z,100326.35
2022-07-31T03:31:10.668Z,100323.95
2022-07-31T03:33:42.814Z,100325.45
2022-07-31T03:36:14.037Z,100326.98
2022-07-31T03:38:48.754Z,100331.60
2022-07-31T03:41:21.688Z,100328.20
2022-07-31T03:43:52.356Z,100331.79
2022-07-31T03:46:23.723Z,100330.39
2022-07-31T03:48:54.445Z,100332.11
2022-07-31T03:51:25.144Z,100334.94
2022-07-31T03:53:55.825Z,100335.42
2022-07-31T03:56:26.432Z,100336.01
2022-07-31T03:58:57.293Z,100341.64
2022-07-31T04:01:30.213Z,100337.83
2022-07-31T04:04:20.836Z,100337.16
2022-07-31T04:06:51.506Z,100337.42
2022-07-31T04:09:22.179Z,100342.67
2022-07-31T04:11:52.785Z,100342.96
2022-07-31T04:14:23.534Z,100339.33
2022-07-31T04:16:54.186Z,100341.98
2022-07-31T04:19:24.913Z,100341.83
2022-07-31T04:21:55.551Z,100339.58
2022-07-31T04:24:26.195Z,100341.67
2022-07-31T04:26:57.622Z,100335.09
2022-07-31T04:29:29.734Z,100335.40
2022-07-31T04:32:00.652Z,100333.42
2022-07-31T04:34:31.505Z,100329.23
2022-07-31T04:37:02.141Z,100326.13
2022-07-31T04:39:32.922Z,100326.71
2022-07-31T04:42:03.782Z,100325.17
2022-07-31T04:44:34.772Z,100323.52
2022-07-31T04:47:06.475Z,100324.59
2022-07-31T04:49:37.176Z,100320.16
2022-07-31T04:52:08.959Z,100325.48
2022-07-31T04:54:40.286Z,100326.73
2022-07-31T04:57:11.008Z,100325.64
2022-07-31T04:59:59.913Z,100326.85
2022-07-31T05:02:31.742Z,100333.56
2022-07-31T05:05:02.462Z,100334.02
2022-07-31T05:07:34.778Z,100338.09
2022-07-31T05:10:05.793Z,100331.88
2022-07-31T05:12:36.575Z,100333.68
2022-07-31T05:15:08.662Z,100336.67
2022-07-31T05:17:39.337Z,100343.86
2022-07-31T05:20:10.969Z,100350.34
2022-07-31T05:22:41.635Z,100354.44
2022-07-31T05:25:12.390Z,100356.95
2022-07-31T05:27:43.220Z,100357.93
2022-07-31T05:30:15.183Z,100360.09
2022-07-31T05:32:45.833Z,100358.52
2022-07-31T05:35:16.557Z,100356.90
2022-07-31T05:37:47.201Z,100358.38
2022-07-31T05:40:18.006Z,100352.12
2022-07-31T05:42:48.652Z,100350.51
2022-07-31T05:45:20.289Z,100351.11
2022-07-31T05:47:51.073Z,100353.22
2022-07-31T05:50:21.978Z,100355.27
2022-07-31T05:52:52.731Z,100362.81
2022-07-31T05:55:23.546Z,100354.80
2022-07-31T05:57:54.198Z,100350.38
2022-07-31T06:00:25.177Z,100348.78
2022-07-31T06:02:56.742Z,100347.05
2022-07-31T06:05:27.542Z,100348.23
2022-07-31T06:07:58.307Z,100352.77
2022-07-31T06:10:29.578Z,100348.75
2022-07-31T06:13:00.215Z,100346.58
2022-07-31T06:15:35.803Z,100343.92
2022-07-31T06:18:07.328Z,100343.58
2022-07-31T06:20:38.069Z,100345.09
2022-07-31T06:23:22.535Z,100348.23
2022-07-31T06:25:57.256Z,100348.76
2022-07-31T06:28:46.513Z,100344.00
2022-07-31T06:31:22.185Z,100340.58
2022-07-31T06:33:52.958Z,100340.31
2022-07-31T06:36:23.843Z,100340.98
2022-07-31T06:38:54.736Z,100341.16
2022-07-31T06:41:43.037Z,100337.77
2022-07-31T06:44:16.846Z,100338.45
2022-07-31T06:46:48.704Z,100339.14
2022-07-31T06:49:20.194Z,100338.38
2022-07-31T06:51:50.962Z,100343.74
2022-07-31T06:54:21.690Z,100339.52
2022-07-31T06:56:57.965Z,100343.20
2022-07-31T06:59:39.875Z,100345.41
2022-07-31T07:02:11.502Z,100350.14
2022-07-31T07:05:05.301Z,100349.77
2022-07-31T07:07:33.103Z,100349.43
2022-07-31T07:10:03.913Z,100350.35
2022-07-31T07:12:34.735Z,100353.92
2022-07-31T07:15:06.422Z,100353.34
2022-07-31T07:17:37.677Z,100349.39
2022-07-31T07:20:09.692Z,100352.75
2022-07-31T07:22:40.314Z,100350.45
2022-07-31T07:25:12.733Z,100355.23
2022-07-31T07:27:44.621Z,100355.11
2022-07-31T07:30:15.442Z,100354.14
2022-07-31T07:32:46.092Z,100353.58
2022-07-31T07:35:16.783Z,100354.60
2022-07-31T07:37:47.517Z,100353.79
2022-07-31T07:40:18.169Z,100354.89
2022-07-31T07:42:49.002Z,100359.88
2022-07-31T07:45:19.829Z,100357.29
2022-07-31T07:48:02.867Z,100349.56
2022-07-31T07:50:37.652Z,100352.70
2022-07-31T07:53:08.409Z,100354.05
2022-07-31T07:55:41.893Z,100351.67
2022-07-31T07:58:12.488Z,100351.30
2022-07-31T08:00:43.235Z,100348.89
2022-07-31T08:03:49.953Z,100347.75
2022-07-31T08:06:04.876Z,100345.89
2022-07-31T08:08:35.595Z,100344.94
2022-07-31T08:11:06.423Z,100343.22
2022-07-31T08:13:38.878Z,100344.96
2022-07-31T08:16:11.742Z,100344.84
2022-07-31T08:18:42.423Z,100340.86
2022-07-31T08:21:13.070Z,100343.20
2022-07-31T08:23:43.743Z,100344.95
2022-07-31T08:26:14.490Z,100345.00
2022-07-31T08:28:50.790Z,100344.63
2022-07-31T08:31:21.904Z,100343.71
2022-07-31T08:33:53.120Z,100346.75
2022-07-31T08:36:25.048Z,100346.31
2022-07-31T08:38:55.771Z,100342.36
2022-07-31T08:41:26.365Z,100344.77
2022-07-31T08:44:01.685Z,100341.58
2022-07-31T08:46:36.049Z,100343.29
2022-07-31T08:49:07.429Z,100341.30
2022-07-31T08:51:50.890Z,100340.79
2022-07-31T08:54:22.601Z,100343.58
2022-07-31T08:56:53.479Z,100336.67
2022-07-31T08:59:24.288Z,100329.63
2022-07-31T09:01:57.102Z,100331.71
2022-07-31T09:04:27.771Z,100328.61
2022-07-31T09:07:00.509Z,100326.98
2022-07-31T09:09:50.792Z,100319.73
2022-07-31T09:12:33.487Z,100314.27
2022-07-31T09:15:05.368Z,100311.27
2022-07-31T09:17:36.712Z,100311.38
2022-07-31T09:20:08.113Z,100304.25
2022-07-31T09:22:38.774Z,100301.34
2022-07-31T09:25:12.344Z,100298.70
2022-07-31T09:27:43.080Z,100293.82
2022-07-31T09:30:14.215Z,100296.95
2022-07-31T09:32:46.106Z,100299.58
2022-07-31T09:35:16.989Z,100296.03
2022-07-31T09:37:49.093Z,100294.04
2022-07-31T09:40:20.901Z,100296.89
2022-07-31T09:42:55.234Z,100300.85
2022-07-31T09:45:26.991Z,100290.73
2022-07-31T09:48:15.224Z,100289.45
2022-07-31T09:50:55.972Z,100275.89
2022-07-31T09:53:26.956Z,100280.73
2022-07-31T09:55:58.291Z,100277.97
2022-07-31T09:58:28.978Z,100278.09
2022-07-31T10:00:59.813Z,100277.35
2022-07-31T10:03:30.746Z,100276.89
2022-07-31T10:06:01.803Z,100272.21
2022-07-31T10:08:33.664Z,100270.23
2022-07-31T10:11:04.356Z,100272.64
2022-07-31T10:13:37.687Z,100275.36
2022-07-31T10:16:13.322Z,100264.57
2022-07-31T10:18:44.805Z,100263.36
2022-07-31T10:21:15.567Z,100268.92
2022-07-31T10:23:46.332Z,100260.27
2022-07-31T10:26:16.980Z,100256.97
2022-07-31T10:28:47.708Z,100259.17
2022-07-31T10:31:18.408Z,100255.36
2022-07-31T10:33:49.173Z,100249.46
2022-07-31T10:36:20.237Z,100244.46
2022-07-31T10:38:52.381Z,100242.38
2022-07-31T10:41:25.383Z,100239.27
2022-07-31T10:43:56.951Z,100240.02
2022-07-31T10:46:30.508Z,100238.29
2022-07-31T10:49:08.264Z,100232.36
2022-07-31T10:51:48.961Z,100234.31
2022-07-31T10:54:19.653Z,100227.17
2022-07-31T10:56:50.371Z,100224.45
2022-07-31T10:59:28.706Z,100215.77
2022-07-31T11:02:00.138Z,100219.28
2022-07-31T11:04:32.088Z,100220.31
2022-07-31T11:07:03.107Z,100212.30
2022-07-31T11:09:34.112Z,100215.62
2022-07-31T11:12:22.072Z,100214.10
2022-07-31T11:14:52.817Z,100211.45
2022-07-31T11:18:21.889Z,100207.30
2022-07-31T11:20:25.581Z,100203.98
2022-07-31T11:22:57.147Z,100202.98
2022-07-31T11:25:29.532Z,100200.20
2022-07-31T11:28:10.811Z,100190.28
2022-07-31T11:30:52.311Z,100182.16
2022-07-31T11:33:42.703Z,100181.71
2022-07-31T11:36:14.525Z,100183.51
2022-07-31T11:38:46.763Z,100176.51
2022-07-31T11:41:20.261Z,100170.80
2022-07-31T11:43:54.588Z,100163.95
2022-07-31T11:46:27.294Z,100159.79
2022-07-31T11:48:58.351Z,100159.92
2022-07-31T11:51:29.230Z,100160.19
2022-07-31T11:54:00.480Z,100171.70
2022-07-31T11:56:31.344Z,100157.80
2022-07-31T11:59:02.176Z,100162.88
2022-07-31T12:01:32.924Z,100154.91
2022-07-31T12:04:08.462Z,100156.09
2022-07-31T12:06:40.378Z,100163.34
2022-07-31T12:10:00.977Z,100158.64
2022-07-31T12:12:02.349Z,100151.73
2022-07-31T12:14:35.152Z,100149.38
2022-07-31T12:17:06.451Z,100144.86
2022-07-31T12:19:38.795Z,100139.89
2022-07-31T12:22:20.270Z,100134.52
2022-07-31T12:24:55.947Z,100128.54
2022-07-31T12:27:26.745Z,100133.98
2022-07-31T12:29:57.484Z,100141.34
2022-07-31T12:32:28.300Z,100141.54
2022-07-31T12:35:06.331Z,100139.10
2022-07-31T12:37:45.478Z,100135.80
2022-07-31T12:40:26.851Z,100134.66
2022-07-31T12:42:59.621Z,100136.83
2022-07-31T12:45:34.442Z,100149.77
2022-07-31T12:48:05.898Z,100135.08
2022-07-31T12:50:36.625Z,100141.02
2022-07-31T12:53:07.270Z,100132.52
2022-07-31T12:55:38.333Z,100141.48
2022-07-31T12:58:09.208Z,100127.60
2022-07-31T13:00:40.397Z,100124.20
2022-07-31T13:03:11.256Z,100115.29
2022-07-31T13:05:42.036Z,100111.06
2022-07-31T13:08:13.334Z,100106.37
2022-07-31T13:10:44.056Z,100105.44
2022-07-31T13:13:15.214Z,100100.35
2022-07-31T13:15:45.980Z,100097.64
2022-07-31T13:18:16.780Z,100089.05
2022-07-31T13:20:47.544Z,100096.65
2022-07-31T13:23:18.154Z,100091.41
2022-07-31T13:25:48.820Z,100082.40
2022-07-31T13:28:19.651Z,100078.98
2022-07-31T13:30:54.761Z,100082.94
2022-07-31T13:33:25.920Z,100077.97
2022-07-31T13:35:56.544Z,100078.89
2022-07-31T13:38:27.216Z,100079.03
2022-07-31T13:41:15.699Z,100076.15
2022-07-31T13:44:00.009Z,100071.85
2022-07-31T13:46:31.550Z,100085.31
2022-07-31T13:49:03.031Z,100068.83
2022-07-31T13:51:33.883Z,100067.88
2022-07-31T13:54:04.734Z,100064.81
2022-07-31T13:56:42.408Z,100071.65
2022-07-31T13:59:14.848Z,100068.85
2022-07-31T14:02:02.876Z,100063.39
2022-07-31T14:04:38.196Z,100063.53
2022-07-31T14:07:10.352Z,100070.28
2022-07-31T14:09:47.015Z,100069.08
2022-07-31T14:12:26.127Z,100080.08
2022-07-31T14:14:56.811Z,100086.07
2022-07-31T14:17:27.582Z,100078.14
2022-07-31T14:19:58.312Z,100080.41
2022-07-31T14:22:30.452Z,100077.91
2022-07-31T14:25:01.185Z,100075.84
2022-07-31T14:27:31.971Z,100073.39
2022-07-31T14:30:02.708Z,100071.06
2022-07-31T14:32:33.446Z,100069.52
2022-07-31T14:35:08.119Z,100067.23
2022-07-31T14:37:41.898Z,100059.29
2022-07-31T14:40:13.860Z,100062.77
2022-07-31T14:42:44.691Z,100073.85
2022-07-31T14:45:15.630Z,100094.14
2022-07-31T14:47:46.579Z,100105.54
2022-07-31T14:50:19.702Z,100118.74
2022-07-31T14:52:50.983Z,100129.80
2022-07-31T14:55:23.477Z,100139.69
2022-07-31T14:57:54.276Z,100142.38
2022-07-31T15:00:26.476Z,100138.71
2022-07-31T15:02:57.161Z,100147.52
2022-07-31T15:06:41.932Z,100163.05
2022-07-31T15:08:18.629Z,100162.83
2022-07-31T15:10:49.286Z,100164.06
2022-07-31T15:13:20.087Z,100177.09
2022-07-31T15:15:50.740Z,100168.02
2022-07-31T15:18:21.627Z,100168.50
2022-07-31T15:20:56.637Z,100175.55
2022-07-31T15:23:27.422Z,100174.33
2022-07-31T15:26:07.024Z,100173.02
2022-07-31T15:28:37.716Z,100169.05
2022-07-31T15:31:08.433Z,100161.05
2022-07-31T15:33:39.256Z,100153.41
2022-07-31T15:36:15.103Z,100147.42
2022-07-31T15:38:46.212Z,100145.16
2022-07-31T15:41:18.970Z,100135.31
2022-07-31T15:43:49.969Z,100132.71
2022-07-31T15:46:20.605Z,100133.27
2022-07-31T15:48:52.340Z,100129.77
2022-07-31T15:51:24.039Z,100127.66
2022-07-31T15:53:54.724Z,100136.92
2022-07-31T15:56:27.116Z,100141.51
2022-07-31T15:58:59.824Z,100139.09
2022-07-31T16:01:30.482Z,100137.34
2022-07-31T16:04:01.464Z,100138.09
2022-07-31T16:06:32.857Z,100148.01
2022-07-31T16:09:03.657Z,100144.43
2022-07-31T16:12:05.428Z,100136.91
2022-07-31T16:14:25.068Z,100131.36
2022-07-31T16:16:56.812Z,100132.36
2022-07-31T16:19:28.394Z,100136.68
2022-07-31T16:22:04.451Z,100135.46
2022-07-31T16:24:35.772Z,100140.63
2022-07-31T16:27:07.014Z,100137.73
2022-07-31T16:29:58.858Z,100144.25
2022-07-31T16:32:28.783Z,100142.95
2022-07-31T16:35:01.310Z,100139.65
2022-07-31T16:37:50.437Z,100139.98
2022-07-31T16:40:30.514Z,100140.55
2022-07-31T16:43:47.652Z,100145.13
2022-07-31T16:45:54.364Z,100150.55
2022-07-31T16:48:25.016Z,100149.91
2022-07-31T16:50:55.685Z,100147.30
2022-07-31T16:54:11.110Z,100143.64
2022-07-31T16:56:17.628Z,100144.55
2022-07-31T16:58:51.383Z,100144.66
2022-07-31T17:01:57.668Z,100143.31
2022-07-31T17:04:16.054Z,100145.16
2022-07-31T17:06:47.441Z,100156.10
2022-07-31T17:09:18.674Z,100154.42
2022-07-31T17:11:51.679Z,100154.83
2022-07-31T17:14:23.768Z,100157.70
2022-07-31T17:16:54.755Z,100163.41
2022-07-31T17:19:41.019Z,100169.52
2022-07-31T17:22:18.547Z,100173.02
2022-07-31T17:24:51.739Z,100172.52
2022-07-31T17:27:22.685Z,100176.88
2022-07-31T17:29:53.289Z,100179.92
2022-07-31T17:32:23.971Z,100178.44
2022-07-31T17:34:54.755Z,100186.13
2022-07-31T17:37:25.431Z,100194.96
2022-07-31T17:39:57.821Z,100201.61
2022-07-31T17:42:28.846Z,100201.14
2022-07-31T17:45:02.158Z,100207.83
2022-07-31T17:47:33.808Z,100206.30
2022-07-31T17:50:04.488Z,100200.61
2022-07-31T17:52:35.239Z,100201.23
2022-07-31T17:55:06.587Z,100205.14
2022-07-31T17:57:37.538Z,100214.09
2022-07-31T18:00:10.175Z,100213.61
2022-07-31T18:02:40.884Z,100220.48
2022-07-31T18:05:11.757Z,100223.32
2022-07-31T18:07:42.456Z,100228.16
2022-07-31T18:10:13.127Z,100229.31
2022-07-31T18:12:57.502Z,100230.40
2022-07-31T18:15:34.829Z,100233.14
2022-07-31T18:18:06.939Z,100234.30
2022-07-31T18:20:38.337Z,100231.56
2022-07-31T18:23:10.248Z,100231.70
2022-07-31T18:25:41.153Z,100228.73
2022-07-31T18:28:11.947Z,100224.72
2022-07-31T18:30:43.891Z,100228.41
2022-07-31T18:33:17.421Z,100228.11
2022-07-31T18:35:47.954Z,100225.98
2022-07-31T18:38:18.731Z,100225.34
2022-07-31T18:40:49.455Z,100228.40
2022-07-31T18:43:20.117Z,100231.20
2022-07-31T18:45:50.716Z,100231.04
2022-07-31T18:48:21.485Z,100231.08
2022-07-31T18:50:58.606Z,100229.32
2022-07-31T18:53:33.367Z,100228.73
2022-07-31T18:56:04.143Z,100227.71
2022-07-31T18:58:34.809Z,100225.54
2022-07-31T19:01:05.543Z,100220.21
2022-07-31T19:03:36.327Z,100218.67
2022-07-31T19:06:07.149Z,100216.41
2022-07-31T19:08:37.828Z,100224.32
2022-07-31T19:11:08.576Z,100225.64
2022-07-31T19:13:39.214Z,100221.44
2022-07-31T19:16:12.660Z,100223.38
2022-07-31T19:18:45.880Z,100220.81
2022-07-31T19:21:41.079Z,100216.73
2022-07-31T19:24:11.885Z,100217.37
2022-07-31T19:26:42.513Z,100216.23
2022-07-31T19:29:15.394Z,100213.35
2022-07-31T19:31:46.600Z,100211.93
2022-07-31T19:34:18.524Z,100214.94
2022-07-31T19:36:49.640Z,100211.30
2022-07-31T19:39:20.363Z,100215.39
2022-07-31T19:42:21.497Z,100217.70
2022-07-31T19:44:41.752Z,100219.02
2022-07-31T19:47:12.456Z,100215.19
2022-07-31T19:49:45.101Z,100215.20
2022-07-31T19:52:15.817Z,100220.23
2022-07-31T19:54:46.462Z,100220.83
2022-07-31T19:57:18.321Z,100219.00
2022-07-31T19:59:48.960Z,100221.85
2022-07-31T20:02:19.577Z,100227.79
2022-07-31T20:04:50.255Z,100230.88
2022-07-31T20:07:20.965Z,100236.61
2022-07-31T20:09:51.684Z,100236.98
2022-07-31T20:12:22.361Z,100235.17
2022-07-31T20:14:53.012Z,100233.46
2022-07-31T20:17:23.689Z,100233.04
2022-07-31T20:20:14.851Z,100229.73
2022-07-31T20:22:45.014Z,100228.85
2022-07-31T20:25:20.293Z,100231.20
2022-07-31T20:27:51.561Z,100233.44
2022-07-31T20:30:25.252Z,100236.27
2022-07-31T20:32:55.968Z,100242.40
2022-07-31T20:35:32.789Z,100244.54
2022-07-31T20:38:18.170Z,100241.60
2022-07-31T20:40:54.186Z,100234.55
2022-07-31T20:43:26.460Z,100228.91
2022-07-31T20:45:58.348Z,100226.77
2022-07-31T20:48:32.279Z,100227.70
2022-07-31T20:51:03.685Z,100225.66
2022-07-31T20:53:34.272Z,100225.93
2022-07-31T20:56:05.136Z,100222.44
2022-07-31T20:58:35.846Z,100220.20
2022-07-31T21:01:06.618Z,100227.06
2022-07-31T21:03:37.400Z,100225.67
2022-07-31T21:06:08.227Z,100225.96
2022-07-31T21:08:41.144Z,100227.77
2022-07-31T21:11:16.054Z,100222.56
2022-07-31T21:13:47.017Z,100222.69
2022-07-31T21:16:17.782Z,100224.94
2022-07-31T21:18:50.750Z,100228.52
2022-07-31T21:21:21.470Z,100225.89
2022-07-31T21:23:52.241Z,100224.27
2022-07-31T21:26:22.878Z,100227.84
2022-07-31T21:28:54.077Z,100225.26
2022-07-31T21:31:25.345Z,100220.89
2022-07-31T21:33:56.538Z,100219.16
2022-07-31T21:36:27.231Z,100217.18
2022-07-31T21:38:58.304Z,100220.88
2022-07-31T21:41:29.549Z,100221.12
2022-07-31T21:44:00.774Z,100220.46
2022-07-31T21:46:32.101Z,100217.80
2022-07-31T21:49:03.562Z,100222.35
2022-07-31T21:51:35.399Z,100227.15
2022-07-31T21:54:06.232Z,100241.29
2022-07-31T21:56:37.103Z,100254.95
2022-07-31T21:59:07.859Z,100263.10
2022-07-31T22:01:38.831Z,100264.00
2022-07-31T22:04:34.508Z,100253.14
2022-07-31T22:07:23.598Z,100249.72
2022-07-31T22:09:54.353Z,100254.78
2022-07-31T22:12:25.117Z,100255.90
2022-07-31T22:14:55.829Z,100258.50
2022-07-31T22:17:26.586Z,100249.98
2022-07-31T22:19:59.645Z,100242.14
2022-07-31T22:22:31.378Z,100243.07
2022-07-31T22:25:02.486Z,100247.81
2022-07-31T22:27:50.844Z,100246.71
2022-07-31T22:30:22.859Z,100240.52
2022-07-31T22:32:54.075Z,100234.73
2022-07-31T22:35:24.867Z,100229.67
2022-07-31T22:37:55.659Z,100227.78
2022-07-31T22:40:26.458Z,100225.75
2022-07-31T22:42:58.189Z,100227.09
2022-07-31T22:45:29.470Z,100222.19
2022-07-31T22:48:00.267Z,100218.75
2022-07-31T22:50:31.141Z,100210.63
2022-07-31T22:53:01.991Z,100204.38
2022-07-31T22:55:32.730Z,100204.61
2022-07-31T22:58:03.497Z,100203.08
2022-07-31T23:00:34.259Z,100203.47
2022-07-31T23:03:05.058Z,100205.77
2022-07-31T23:06:05.238Z,100207.91
2022-07-31T23:08:26.601Z,100202.72
2022-07-31T23:10:57.148Z,100205.29
2022-07-31T23:13:27.890Z,100208.37
2022-07-31T23:15:58.525Z,100205.48
2022-07-31T23:18:30.556Z,100206.09
2022-07-31T23:21:01.377Z,100201.94
2022-07-31T23:23:32.034Z,100195.78
2022-07-31T23:26:02.735Z,100194.66
2022-07-31T23:28:33.401Z,100191.17
2022-07-31T23:31:04.041Z,100190.02
2022-07-31T23:33:34.661Z,100193.17
2022-07-31T23:36:05.573Z,100187.37
2022-07-31T23:38:36.345Z,100186.27
2022-07-31T23:41:07.067Z,100186.49
2022-07-31T23:43:37.837Z,100189.61
2022-07-31T23:46:08.555Z,100185.33
2022-07-31T23:48:39.371Z,100181.63
2022-07-31T23:51:10.186Z,100180.13
2022-07-31T23:53:40.835Z,100178.20
2022-07-31T23:56:19.204Z,100177.63
2022-07-31T23:58:50.607Z,100175.55
